sensor_id;sensor_type;location;lat;lon;timestamp;P1;durP1;ratioP1;P2;durP2;ratioP2
29370;SDS011;16357;52.188;7.838;2022-10-31T00:00:27;15.70;;;9.95;;
29370;SDS011;16357;52.188;7.838;2022-10-31T00:02:54;19.52;;;10.52;;
29370;SDS011;16357;52.188;7.838;2022-10-31T00:05:20;18.25;;;9.85;;
29370;SDS011;16357;52.188;7.838;2022-10-31T00:07:46;16.95;;;10.23;;
29370;SDS011;16357;52.188;7.838;2022-10-31T00:10:13;17.45;;;10.50;;
29370;SDS011;16357;52.188;7.838;2022-10-31T00:12:39;21.15;;;10.85;;
29370;SDS011;16357;52.188;7.838;2022-10-31T00:15:06;16.75;;;10.95;;
29370;SDS011;16357;52.188;7.838;2022-10-31T00:17:34;17.70;;;10.70;;
29370;SDS011;16357;52.188;7.838;2022-10-31T00:20:01;18.85;;;11.00;;
29370;SDS011;16357;52.188;7.838;2022-10-31T00:22:27;18.13;;;11.00;;
29370;SDS011;16357;52.188;7.838;2022-10-31T00:24:54;18.75;;;10.65;;
29370;SDS011;16357;52.188;7.838;2022-10-31T00:27:20;17.00;;;10.38;;
29370;SDS011;16357;52.188;7.838;2022-10-31T00:29:46;15.35;;;10.13;;
29370;SDS011;16357;52.188;7.838;2022-10-31T00:32:13;17.35;;;10.32;;
29370;SDS011;16357;52.188;7.838;2022-10-31T00:34:39;19.70;;;10.32;;
29370;SDS011;16357;52.188;7.838;2022-10-31T00:37:06;22.17;;;11.20;;
29370;SDS011;16357;52.188;7.838;2022-10-31T00:39:32;19.30;;;10.90;;
29370;SDS011;16357;52.188;7.838;2022-10-31T00:41:59;15.07;;;10.38;;
29370;SDS011;16357;52.188;7.838;2022-10-31T00:44:25;14.93;;;10.07;;
29370;SDS011;16357;52.188;7.838;2022-10-31T00:46:51;19.42;;;10.75;;
29370;SDS011;16357;52.188;7.838;2022-10-31T00:49:18;15.30;;;10.20;;
29370;SDS011;16357;52.188;7.838;2022-10-31T00:51:44;19.85;;;10.25;;
29370;SDS011;16357;52.188;7.838;2022-10-31T00:54:10;19.25;;;10.45;;
29370;SDS011;16357;52.188;7.838;2022-10-31T00:56:37;16.73;;;10.38;;
29370;SDS011;16357;52.188;7.838;2022-10-31T00:59:03;14.80;;;9.48;;
29370;SDS011;16357;52.188;7.838;2022-10-31T01:01:30;15.38;;;9.57;;
29370;SDS011;16357;52.188;7.838;2022-10-31T01:03:56;19.90;;;10.55;;
29370;SDS011;16357;52.188;7.838;2022-10-31T01:06:22;18.92;;;10.13;;
29370;SDS011;16357;52.188;7.838;2022-10-31T01:08:49;14.02;;;10.00;;
29370;SDS011;16357;52.188;7.838;2022-10-31T01:11:19;21.17;;;10.77;;
29370;SDS011;16357;52.188;7.838;2022-10-31T01:13:47;16.83;;;10.38;;
29370;SDS011;16357;52.188;7.838;2022-10-31T01:16:17;18.42;;;11.60;;
29370;SDS011;16357;52.188;7.838;2022-10-31T01:18:45;20.55;;;11.73;;
29370;SDS011;16357;52.188;7.838;2022-10-31T01:21:19;19.60;;;12.02;;
29370;SDS011;16357;52.188;7.838;2022-10-31T01:23:47;19.63;;;12.18;;
29370;SDS011;16357;52.188;7.838;2022-10-31T01:26:18;18.48;;;11.68;;
29370;SDS011;16357;52.188;7.838;2022-10-31T01:31:27;14.98;;;10.07;;
29370;SDS011;16357;52.188;7.838;2022-10-31T01:33:55;16.15;;;11.23;;
29370;SDS011;16357;52.188;7.838;2022-10-31T01:36:23;17.70;;;11.32;;
29370;SDS011;16357;52.188;7.838;2022-10-31T01:38:55;23.67;;;10.93;;
29370;SDS011;16357;52.188;7.838;2022-10-31T01:41:28;15.00;;;10.45;;
29370;SDS011;16357;52.188;7.838;2022-10-31T01:44:00;18.27;;;10.75;;
29370;SDS011;16357;52.188;7.838;2022-10-31T01:46:33;19.08;;;11.43;;
29370;SDS011;16357;52.188;7.838;2022-10-31T01:49:08;15.93;;;10.63;;
29370;SDS011;16357;52.188;7.838;2022-10-31T01:51:38;21.67;;;11.00;;
29370;SDS011;16357;52.188;7.838;2022-10-31T01:54:12;17.13;;;10.88;;
29370;SDS011;16357;52.188;7.838;2022-10-31T01:56:42;22.88;;;11.40;;
29370;SDS011;16357;52.188;7.838;2022-10-31T01:59:15;20.90;;;12.63;;
29370;SDS011;16357;52.188;7.838;2022-10-31T02:01:45;22.05;;;13.40;;
29370;SDS011;16357;52.188;7.838;2022-10-31T02:04:13;25.67;;;13.38;;
29370;SDS011;16357;52.188;7.838;2022-10-31T02:06:44;20.63;;;12.75;;
29370;SDS011;16357;52.188;7.838;2022-10-31T02:09:15;19.38;;;11.88;;
29370;SDS011;16357;52.188;7.838;2022-10-31T02:11:43;18.80;;;10.60;;
29370;SDS011;16357;52.188;7.838;2022-10-31T02:14:10;23.35;;;12.02;;
29370;SDS011;16357;52.188;7.838;2022-10-31T02:16:37;28.52;;;12.52;;
29370;SDS011;16357;52.188;7.838;2022-10-31T02:19:04;22.52;;;12.50;;
29370;SDS011;16357;52.188;7.838;2022-10-31T02:21:40;23.88;;;13.38;;
29370;SDS011;16357;52.188;7.838;2022-10-31T02:26:57;20.42;;;12.48;;
29370;SDS011;16357;52.188;7.838;2022-10-31T02:29:43;24.65;;;13.13;;
29370;SDS011;16357;52.188;7.838;2022-10-31T02:35:39;17.65;;;11.30;;
29370;SDS011;16357;52.188;7.838;2022-10-31T02:41:18;21.30;;;12.80;;
29370;SDS011;16357;52.188;7.838;2022-10-31T02:46:32;18.33;;;12.90;;
29370;SDS011;16357;52.188;7.838;2022-10-31T02:49:09;17.30;;;11.60;;
29370;SDS011;16357;52.188;7.838;2022-10-31T02:51:42;23.83;;;13.93;;
29370;SDS011;16357;52.188;7.838;2022-10-31T02:54:19;23.45;;;13.52;;
29370;SDS011;16357;52.188;7.838;2022-10-31T02:56:49;24.13;;;13.68;;
29370;SDS011;16357;52.188;7.838;2022-10-31T02:59:18;20.75;;;13.15;;
29370;SDS011;16357;52.188;7.838;2022-10-31T03:10:16;21.10;;;11.85;;
29370;SDS011;16357;52.188;7.838;2022-10-31T03:16:04;19.48;;;11.68;;
29370;SDS011;16357;52.188;7.838;2022-10-31T03:18:40;21.15;;;13.25;;
29370;SDS011;16357;52.188;7.838;2022-10-31T03:21:25;24.27;;;13.93;;
29370;SDS011;16357;52.188;7.838;2022-10-31T03:24:09;21.52;;;13.43;;
29370;SDS011;16357;52.188;7.838;2022-10-31T03:26:38;24.90;;;13.80;;
29370;SDS011;16357;52.188;7.838;2022-10-31T03:29:08;24.25;;;14.00;;
29370;SDS011;16357;52.188;7.838;2022-10-31T03:31:38;22.90;;;14.82;;
29370;SDS011;16357;52.188;7.838;2022-10-31T03:34:09;22.77;;;14.57;;
29370;SDS011;16357;52.188;7.838;2022-10-31T03:36:38;24.35;;;14.75;;
29370;SDS011;16357;52.188;7.838;2022-10-31T03:39:09;28.70;;;17.00;;
29370;SDS011;16357;52.188;7.838;2022-10-31T03:41:41;28.55;;;16.23;;
29370;SDS011;16357;52.188;7.838;2022-10-31T03:44:14;25.00;;;15.70;;
29370;SDS011;16357;52.188;7.838;2022-10-31T03:46:43;24.13;;;15.98;;
29370;SDS011;16357;52.188;7.838;2022-10-31T03:49:10;25.42;;;16.08;;
29370;SDS011;16357;52.188;7.838;2022-10-31T03:57:14;27.75;;;16.33;;
29370;SDS011;16357;52.188;7.838;2022-10-31T03:59:48;24.48;;;15.85;;
29370;SDS011;16357;52.188;7.838;2022-10-31T04:02:20;25.48;;;16.48;;
29370;SDS011;16357;52.188;7.838;2022-10-31T04:04:52;32.88;;;16.90;;
29370;SDS011;16357;52.188;7.838;2022-10-31T04:07:19;22.70;;;15.50;;
29370;SDS011;16357;52.188;7.838;2022-10-31T04:09:47;28.73;;;15.85;;
29370;SDS011;16357;52.188;7.838;2022-10-31T04:12:17;24.58;;;15.05;;
29370;SDS011;16357;52.188;7.838;2022-10-31T04:14:45;23.85;;;16.02;;
29370;SDS011;16357;52.188;7.838;2022-10-31T04:17:14;25.00;;;14.85;;
29370;SDS011;16357;52.188;7.838;2022-10-31T04:19:43;25.58;;;15.07;;
29370;SDS011;16357;52.188;7.838;2022-10-31T04:22:10;19.15;;;14.20;;
29370;SDS011;16357;52.188;7.838;2022-10-31T04:24:37;24.25;;;14.70;;
29370;SDS011;16357;52.188;7.838;2022-10-31T04:27:05;23.77;;;14.70;;
29370;SDS011;16357;52.188;7.838;2022-10-31T04:29:32;26.30;;;15.88;;
29370;SDS011;16357;52.188;7.838;2022-10-31T04:31:59;26.50;;;15.52;;
29370;SDS011;16357;52.188;7.838;2022-10-31T04:34:25;26.17;;;15.10;;
29370;SDS011;16357;52.188;7.838;2022-10-31T04:36:51;25.00;;;15.07;;
29370;SDS011;16357;52.188;7.838;2022-10-31T04:39:18;22.92;;;15.07;;
29370;SDS011;16357;52.188;7.838;2022-10-31T04:41:51;31.70;;;16.30;;
29370;SDS011;16357;52.188;7.838;2022-10-31T04:44:18;27.20;;;16.83;;
29370;SDS011;16357;52.188;7.838;2022-10-31T04:46:44;28.80;;;17.63;;
29370;SDS011;16357;52.188;7.838;2022-10-31T04:49:11;26.75;;;16.17;;
29370;SDS011;16357;52.188;7.838;2022-10-31T04:51:37;26.17;;;16.25;;
29370;SDS011;16357;52.188;7.838;2022-10-31T04:54:04;29.17;;;18.17;;
29370;SDS011;16357;52.188;7.838;2022-10-31T04:56:30;25.02;;;16.55;;
29370;SDS011;16357;52.188;7.838;2022-10-31T04:58:57;28.40;;;16.45;;
29370;SDS011;16357;52.188;7.838;2022-10-31T05:01:23;23.15;;;14.77;;
29370;SDS011;16357;52.188;7.838;2022-10-31T05:03:49;21.33;;;13.18;;
29370;SDS011;16357;52.188;7.838;2022-10-31T05:06:16;25.45;;;15.93;;
29370;SDS011;16357;52.188;7.838;2022-10-31T05:08:42;25.67;;;14.68;;
29370;SDS011;16357;52.188;7.838;2022-10-31T05:11:08;24.52;;;15.35;;
29370;SDS011;16357;52.188;7.838;2022-10-31T05:13:35;24.65;;;15.30;;
29370;SDS011;16357;52.188;7.838;2022-10-31T05:16:01;27.15;;;17.20;;
29370;SDS011;16357;52.188;7.838;2022-10-31T05:18:29;20.80;;;15.50;;
29370;SDS011;16357;52.188;7.838;2022-10-31T05:20:55;28.73;;;16.20;;
29370;SDS011;16357;52.188;7.838;2022-10-31T05:23:21;20.40;;;14.45;;
29370;SDS011;16357;52.188;7.838;2022-10-31T05:25:48;22.25;;;14.32;;
29370;SDS011;16357;52.188;7.838;2022-10-31T05:28:14;23.60;;;15.65;;
29370;SDS011;16357;52.188;7.838;2022-10-31T05:30:41;22.20;;;14.60;;
29370;SDS011;16357;52.188;7.838;2022-10-31T05:33:07;28.08;;;15.40;;
29370;SDS011;16357;52.188;7.838;2022-10-31T05:35:33;23.70;;;15.95;;
29370;SDS011;16357;52.188;7.838;2022-10-31T05:38:00;21.08;;;15.73;;
29370;SDS011;16357;52.188;7.838;2022-10-31T05:40:27;26.38;;;17.13;;
29370;SDS011;16357;52.188;7.838;2022-10-31T05:42:54;26.63;;;16.90;;
29370;SDS011;16357;52.188;7.838;2022-10-31T05:45:22;28.20;;;16.23;;
29370;SDS011;16357;52.188;7.838;2022-10-31T05:47:58;24.15;;;15.32;;
29370;SDS011;16357;52.188;7.838;2022-10-31T05:50:28;24.05;;;14.27;;
29370;SDS011;16357;52.188;7.838;2022-10-31T05:52:57;25.27;;;16.00;;
29370;SDS011;16357;52.188;7.838;2022-10-31T05:55:25;24.25;;;15.88;;
29370;SDS011;16357;52.188;7.838;2022-10-31T05:57:52;23.40;;;15.68;;
29370;SDS011;16357;52.188;7.838;2022-10-31T06:00:20;25.08;;;15.55;;
29370;SDS011;16357;52.188;7.838;2022-10-31T06:02:47;19.30;;;13.05;;
29370;SDS011;16357;52.188;7.838;2022-10-31T06:05:14;21.63;;;14.68;;
29370;SDS011;16357;52.188;7.838;2022-10-31T06:07:41;19.65;;;13.32;;
29370;SDS011;16357;52.188;7.838;2022-10-31T06:10:07;23.67;;;14.52;;
29370;SDS011;16357;52.188;7.838;2022-10-31T06:12:34;24.02;;;15.82;;
29370;SDS011;16357;52.188;7.838;2022-10-31T06:15:07;24.40;;;14.40;;
29370;SDS011;16357;52.188;7.838;2022-10-31T06:17:34;26.73;;;16.77;;
29370;SDS011;16357;52.188;7.838;2022-10-31T06:20:02;21.33;;;14.32;;
29370;SDS011;16357;52.188;7.838;2022-10-31T06:22:29;23.13;;;13.70;;
29370;SDS011;16357;52.188;7.838;2022-10-31T06:24:56;21.80;;;14.27;;
29370;SDS011;16357;52.188;7.838;2022-10-31T06:27:22;25.45;;;15.32;;
29370;SDS011;16357;52.188;7.838;2022-10-31T06:29:50;26.38;;;16.77;;
29370;SDS011;16357;52.188;7.838;2022-10-31T06:32:16;40.85;;;18.38;;
29370;SDS011;16357;52.188;7.838;2022-10-31T06:34:43;37.00;;;19.77;;
29370;SDS011;16357;52.188;7.838;2022-10-31T06:37:10;37.88;;;19.02;;
29370;SDS011;16357;52.188;7.838;2022-10-31T06:39:38;32.85;;;17.05;;
29370;SDS011;16357;52.188;7.838;2022-10-31T06:42:04;31.73;;;16.60;;
29370;SDS011;16357;52.188;7.838;2022-10-31T06:44:31;32.22;;;15.57;;
29370;SDS011;16357;52.188;7.838;2022-10-31T06:46:57;32.08;;;17.02;;
29370;SDS011;16357;52.188;7.838;2022-10-31T06:49:23;45.00;;;19.42;;
29370;SDS011;16357;52.188;7.838;2022-10-31T06:51:50;40.15;;;20.90;;
29370;SDS011;16357;52.188;7.838;2022-10-31T06:54:17;31.10;;;18.27;;
29370;SDS011;16357;52.188;7.838;2022-10-31T06:56:45;29.67;;;17.58;;
29370;SDS011;16357;52.188;7.838;2022-10-31T06:59:13;28.98;;;17.38;;
29370;SDS011;16357;52.188;7.838;2022-10-31T07:01:40;29.50;;;16.33;;
29370;SDS011;16357;52.188;7.838;2022-10-31T07:04:08;28.35;;;17.10;;
29370;SDS011;16357;52.188;7.838;2022-10-31T07:06:37;26.85;;;14.98;;
29370;SDS011;16357;52.188;7.838;2022-10-31T07:09:04;27.15;;;15.60;;
29370;SDS011;16357;52.188;7.838;2022-10-31T07:11:31;21.35;;;14.32;;
29370;SDS011;16357;52.188;7.838;2022-10-31T07:13:57;23.40;;;14.90;;
29370;SDS011;16357;52.188;7.838;2022-10-31T07:16:24;22.33;;;15.15;;
29370;SDS011;16357;52.188;7.838;2022-10-31T07:18:50;23.58;;;14.80;;
29370;SDS011;16357;52.188;7.838;2022-10-31T07:21:16;21.10;;;14.70;;
29370;SDS011;16357;52.188;7.838;2022-10-31T07:23:43;20.17;;;14.50;;
29370;SDS011;16357;52.188;7.838;2022-10-31T07:26:09;20.52;;;15.15;;
29370;SDS011;16357;52.188;7.838;2022-10-31T07:28:36;23.30;;;15.00;;
29370;SDS011;16357;52.188;7.838;2022-10-31T07:31:03;19.15;;;14.75;;
29370;SDS011;16357;52.188;7.838;2022-10-31T07:33:29;21.25;;;15.10;;
29370;SDS011;16357;52.188;7.838;2022-10-31T07:35:55;19.30;;;15.23;;
29370;SDS011;16357;52.188;7.838;2022-10-31T07:38:22;22.52;;;16.50;;
29370;SDS011;16357;52.188;7.838;2022-10-31T07:40:49;24.42;;;17.20;;
29370;SDS011;16357;52.188;7.838;2022-10-31T07:43:18;26.40;;;17.27;;
29370;SDS011;16357;52.188;7.838;2022-10-31T07:45:48;26.25;;;16.33;;
29370;SDS011;16357;52.188;7.838;2022-10-31T07:48:18;25.88;;;17.55;;
29370;SDS011;16357;52.188;7.838;2022-10-31T07:50:45;28.77;;;18.23;;
29370;SDS011;16357;52.188;7.838;2022-10-31T07:53:12;27.75;;;17.27;;
29370;SDS011;16357;52.188;7.838;2022-10-31T07:55:40;24.00;;;16.38;;
29370;SDS011;16357;52.188;7.838;2022-10-31T07:58:08;27.00;;;16.30;;
29370;SDS011;16357;52.188;7.838;2022-10-31T08:00:40;24.02;;;15.40;;
29370;SDS011;16357;52.188;7.838;2022-10-31T08:03:15;24.50;;;15.55;;
29370;SDS011;16357;52.188;7.838;2022-10-31T08:05:43;25.98;;;14.93;;
29370;SDS011;16357;52.188;7.838;2022-10-31T08:08:12;27.52;;;16.35;;
29370;SDS011;16357;52.188;7.838;2022-10-31T08:10:39;24.05;;;15.23;;
29370;SDS011;16357;52.188;7.838;2022-10-31T08:13:08;29.42;;;17.98;;
29370;SDS011;16357;52.188;7.838;2022-10-31T08:15:38;33.33;;;18.73;;
29370;SDS011;16357;52.188;7.838;2022-10-31T08:18:13;31.27;;;18.15;;
29370;SDS011;16357;52.188;7.838;2022-10-31T08:20:41;28.17;;;20.30;;
29370;SDS011;16357;52.188;7.838;2022-10-31T08:23:09;25.20;;;17.05;;
29370;SDS011;16357;52.188;7.838;2022-10-31T08:25:37;27.75;;;18.92;;
29370;SDS011;16357;52.188;7.838;2022-10-31T08:28:04;30.27;;;20.70;;
29370;SDS011;16357;52.188;7.838;2022-10-31T08:30:34;31.98;;;20.05;;
29370;SDS011;16357;52.188;7.838;2022-10-31T08:35:41;35.65;;;22.13;;
29370;SDS011;16357;52.188;7.838;2022-10-31T08:38:09;36.17;;;21.38;;
29370;SDS011;16357;52.188;7.838;2022-10-31T08:40:36;37.10;;;23.95;;
29370;SDS011;16357;52.188;7.838;2022-10-31T08:43:04;34.95;;;23.73;;
29370;SDS011;16357;52.188;7.838;2022-10-31T08:45:38;33.10;;;22.92;;
29370;SDS011;16357;52.188;7.838;2022-10-31T08:48:06;33.60;;;21.65;;
29370;SDS011;16357;52.188;7.838;2022-10-31T08:50:36;35.35;;;21.05;;
29370;SDS011;16357;52.188;7.838;2022-10-31T08:53:03;35.03;;;22.02;;
29370;SDS011;16357;52.188;7.838;2022-10-31T08:55:34;36.67;;;22.77;;
29370;SDS011;16357;52.188;7.838;2022-10-31T08:58:02;45.58;;;23.00;;
29370;SDS011;16357;52.188;7.838;2022-10-31T09:00:30;36.10;;;22.63;;
29370;SDS011;16357;52.188;7.838;2022-10-31T09:02:57;33.00;;;22.17;;
29370;SDS011;16357;52.188;7.838;2022-10-31T09:05:25;32.33;;;22.38;;
29370;SDS011;16357;52.188;7.838;2022-10-31T09:07:55;34.97;;;23.40;;
29370;SDS011;16357;52.188;7.838;2022-10-31T09:10:27;39.25;;;22.83;;
29370;SDS011;16357;52.188;7.838;2022-10-31T09:13:04;32.55;;;21.73;;
29370;SDS011;16357;52.188;7.838;2022-10-31T09:15:38;35.88;;;22.90;;
29370;SDS011;16357;52.188;7.838;2022-10-31T09:18:06;36.05;;;23.45;;
29370;SDS011;16357;52.188;7.838;2022-10-31T09:20:34;32.20;;;20.13;;
29370;SDS011;16357;52.188;7.838;2022-10-31T09:23:05;35.85;;;22.75;;
29370;SDS011;16357;52.188;7.838;2022-10-31T09:25:34;34.58;;;22.65;;
29370;SDS011;16357;52.188;7.838;2022-10-31T09:28:02;31.48;;;21.33;;
29370;SDS011;16357;52.188;7.838;2022-10-31T09:30:31;32.03;;;20.25;;
29370;SDS011;16357;52.188;7.838;2022-10-31T09:32:59;36.00;;;22.00;;
29370;SDS011;16357;52.188;7.838;2022-10-31T09:35:27;35.03;;;23.23;;
29370;SDS011;16357;52.188;7.838;2022-10-31T09:37:55;36.83;;;22.17;;
29370;SDS011;16357;52.188;7.838;2022-10-31T09:40:29;35.15;;;22.15;;
29370;SDS011;16357;52.188;7.838;2022-10-31T09:46:10;34.88;;;20.42;;
29370;SDS011;16357;52.188;7.838;2022-10-31T09:51:50;37.85;;;21.98;;
29370;SDS011;16357;52.188;7.838;2022-10-31T09:54:30;42.38;;;22.58;;
29370;SDS011;16357;52.188;7.838;2022-10-31T09:57:01;40.30;;;22.27;;
29370;SDS011;16357;52.188;7.838;2022-10-31T09:59:36;35.33;;;21.95;;
29370;SDS011;16357;52.188;7.838;2022-10-31T10:02:09;41.40;;;21.27;;
29370;SDS011;16357;52.188;7.838;2022-10-31T10:04:49;36.47;;;22.45;;
29370;SDS011;16357;52.188;7.838;2022-10-31T10:10:29;33.10;;;20.33;;
29370;SDS011;16357;52.188;7.838;2022-10-31T10:13:29;32.80;;;19.90;;
29370;SDS011;16357;52.188;7.838;2022-10-31T10:16:12;33.58;;;20.27;;
29370;SDS011;16357;52.188;7.838;2022-10-31T10:19:15;33.90;;;19.63;;
29370;SDS011;16357;52.188;7.838;2022-10-31T10:30:23;31.40;;;19.52;;
29370;SDS011;16357;52.188;7.838;2022-10-31T10:33:20;35.97;;;19.55;;
29370;SDS011;16357;52.188;7.838;2022-10-31T10:35:57;31.98;;;19.25;;
29370;SDS011;16357;52.188;7.838;2022-10-31T10:40:59;28.58;;;17.73;;
29370;SDS011;16357;52.188;7.838;2022-10-31T10:43:37;27.83;;;19.42;;
29370;SDS011;16357;52.188;7.838;2022-10-31T10:51:45;28.92;;;18.00;;
29370;SDS011;16357;52.188;7.838;2022-10-31T10:55:09;29.05;;;17.13;;
29370;SDS011;16357;52.188;7.838;2022-10-31T10:57:53;29.20;;;17.35;;
29370;SDS011;16357;52.188;7.838;2022-10-31T11:00:24;29.77;;;17.10;;
29370;SDS011;16357;52.188;7.838;2022-10-31T11:02:53;24.48;;;17.25;;
29370;SDS011;16357;52.188;7.838;2022-10-31T11:05:22;30.40;;;17.35;;
29370;SDS011;16357;52.188;7.838;2022-10-31T11:08:00;23.90;;;15.75;;
29370;SDS011;16357;52.188;7.838;2022-10-31T11:10:27;25.75;;;15.15;;
29370;SDS011;16357;52.188;7.838;2022-10-31T11:13:27;29.35;;;16.33;;
29370;SDS011;16357;52.188;7.838;2022-10-31T11:15:51;21.00;;;14.70;;
29370;SDS011;16357;52.188;7.838;2022-10-31T11:18:25;24.88;;;14.13;;
29370;SDS011;16357;52.188;7.838;2022-10-31T11:20:56;23.08;;;14.15;;
29370;SDS011;16357;52.188;7.838;2022-10-31T11:23:25;24.33;;;14.60;;
29370;SDS011;16357;52.188;7.838;2022-10-31T11:28:23;23.02;;;13.13;;
29370;SDS011;16357;52.188;7.838;2022-10-31T11:30:54;17.02;;;11.30;;
29370;SDS011;16357;52.188;7.838;2022-10-31T11:33:44;23.15;;;12.73;;
29370;SDS011;16357;52.188;7.838;2022-10-31T11:36:23;17.95;;;12.02;;
29370;SDS011;16357;52.188;7.838;2022-10-31T11:38:53;18.10;;;11.05;;
29370;SDS011;16357;52.188;7.838;2022-10-31T11:41:25;18.92;;;11.65;;
29370;SDS011;16357;52.188;7.838;2022-10-31T11:44:16;17.77;;;10.65;;
29370;SDS011;16357;52.188;7.838;2022-10-31T11:46:46;16.92;;;10.27;;
29370;SDS011;16357;52.188;7.838;2022-10-31T11:49:36;15.27;;;9.63;;
29370;SDS011;16357;52.188;7.838;2022-10-31T11:52:08;13.50;;;8.68;;
29370;SDS011;16357;52.188;7.838;2022-10-31T11:54:54;18.10;;;8.82;;
29370;SDS011;16357;52.188;7.838;2022-10-31T11:57:28;16.98;;;7.85;;
29370;SDS011;16357;52.188;7.838;2022-10-31T11:59:57;12.07;;;7.30;;
29370;SDS011;16357;52.188;7.838;2022-10-31T12:02:25;11.02;;;7.80;;
29370;SDS011;16357;52.188;7.838;2022-10-31T12:07:42;16.02;;;8.73;;
29370;SDS011;16357;52.188;7.838;2022-10-31T12:10:09;13.05;;;8.90;;
29370;SDS011;16357;52.188;7.838;2022-10-31T12:12:40;15.82;;;9.23;;
29370;SDS011;16357;52.188;7.838;2022-10-31T12:45:07;18.77;;;11.65;;
29370;SDS011;16357;52.188;7.838;2022-10-31T12:47:52;17.70;;;10.60;;
29370;SDS011;16357;52.188;7.838;2022-10-31T12:59:04;20.83;;;10.95;;
29370;SDS011;16357;52.188;7.838;2022-10-31T13:04:05;17.58;;;10.65;;
29370;SDS011;16357;52.188;7.838;2022-10-31T13:06:41;18.83;;;10.38;;
29370;SDS011;16357;52.188;7.838;2022-10-31T13:09:11;18.33;;;10.05;;
29370;SDS011;16357;52.188;7.838;2022-10-31T13:11:47;15.48;;;10.40;;
29370;SDS011;16357;52.188;7.838;2022-10-31T13:14:33;15.55;;;10.90;;
29370;SDS011;16357;52.188;7.838;2022-10-31T13:17:05;17.08;;;10.07;;
29370;SDS011;16357;52.188;7.838;2022-10-31T13:19:34;18.65;;;9.90;;
29370;SDS011;16357;52.188;7.838;2022-10-31T13:24:38;19.50;;;10.20;;
29370;SDS011;16357;52.188;7.838;2022-10-31T13:30:21;13.95;;;9.88;;
29370;SDS011;16357;52.188;7.838;2022-10-31T13:32:53;20.50;;;10.45;;
29370;SDS011;16357;52.188;7.838;2022-10-31T13:38:34;15.68;;;9.77;;
29370;SDS011;16357;52.188;7.838;2022-10-31T13:41:13;16.38;;;10.25;;
29370;SDS011;16357;52.188;7.838;2022-10-31T13:48:58;16.98;;;10.55;;
29370;SDS011;16357;52.188;7.838;2022-10-31T13:51:25;22.23;;;10.63;;
29370;SDS011;16357;52.188;7.838;2022-10-31T13:54:00;15.70;;;10.07;;
29370;SDS011;16357;52.188;7.838;2022-10-31T13:56:32;12.13;;;8.57;;
29370;SDS011;16357;52.188;7.838;2022-10-31T14:01:47;14.73;;;9.90;;
29370;SDS011;16357;52.188;7.838;2022-10-31T14:04:17;13.47;;;10.30;;
29370;SDS011;16357;52.188;7.838;2022-10-31T14:07:08;17.58;;;10.80;;
29370;SDS011;16357;52.188;7.838;2022-10-31T14:12:31;20.23;;;11.02;;
29370;SDS011;16357;52.188;7.838;2022-10-31T14:17:50;18.48;;;10.35;;
29370;SDS011;16357;52.188;7.838;2022-10-31T14:23:32;17.73;;;10.95;;
29370;SDS011;16357;52.188;7.838;2022-10-31T14:28:57;20.00;;;11.25;;
29370;SDS011;16357;52.188;7.838;2022-10-31T14:48:10;17.50;;;11.02;;
29370;SDS011;16357;52.188;7.838;2022-10-31T14:50:41;20.60;;;10.98;;
29370;SDS011;16357;52.188;7.838;2022-10-31T14:53:13;19.30;;;11.52;;
29370;SDS011;16357;52.188;7.838;2022-10-31T14:55:46;21.70;;;12.77;;
29370;SDS011;16357;52.188;7.838;2022-10-31T14:58:17;22.02;;;12.90;;
29370;SDS011;16357;52.188;7.838;2022-10-31T15:00:48;20.13;;;12.65;;
29370;SDS011;16357;52.188;7.838;2022-10-31T15:03:24;20.67;;;13.00;;
29370;SDS011;16357;52.188;7.838;2022-10-31T15:06:00;18.65;;;12.50;;
29370;SDS011;16357;52.188;7.838;2022-10-31T15:08:32;20.20;;;12.70;;
29370;SDS011;16357;52.188;7.838;2022-10-31T15:11:17;22.17;;;12.68;;
29370;SDS011;16357;52.188;7.838;2022-10-31T15:13:50;18.80;;;10.98;;
29370;SDS011;16357;52.188;7.838;2022-10-31T15:18:49;20.75;;;11.93;;
29370;SDS011;16357;52.188;7.838;2022-10-31T15:21:18;18.25;;;11.40;;
29370;SDS011;16357;52.188;7.838;2022-10-31T15:23:46;17.02;;;11.15;;
29370;SDS011;16357;52.188;7.838;2022-10-31T15:26:20;17.23;;;10.00;;
29370;SDS011;16357;52.188;7.838;2022-10-31T15:28:58;15.27;;;10.33;;
29370;SDS011;16357;52.188;7.838;2022-10-31T15:31:26;17.40;;;11.40;;
29370;SDS011;16357;52.188;7.838;2022-10-31T15:33:52;16.38;;;10.30;;
29370;SDS011;16357;52.188;7.838;2022-10-31T15:36:22;20.42;;;10.65;;
29370;SDS011;16357;52.188;7.838;2022-10-31T15:38:56;15.93;;;9.90;;
29370;SDS011;16357;52.188;7.838;2022-10-31T15:41:33;17.50;;;9.82;;
29370;SDS011;16357;52.188;7.838;2022-10-31T15:44:11;21.45;;;10.10;;
29370;SDS011;16357;52.188;7.838;2022-10-31T15:46:52;19.23;;;9.77;;
29370;SDS011;16357;52.188;7.838;2022-10-31T15:49:35;17.13;;;9.30;;
29370;SDS011;16357;52.188;7.838;2022-10-31T15:54:49;17.40;;;9.93;;
29370;SDS011;16357;52.188;7.838;2022-10-31T15:57:18;13.57;;;9.65;;
29370;SDS011;16357;52.188;7.838;2022-10-31T15:59:46;21.95;;;9.98;;
29370;SDS011;16357;52.188;7.838;2022-10-31T16:02:14;16.00;;;9.45;;
29370;SDS011;16357;52.188;7.838;2022-10-31T16:04:53;18.35;;;9.88;;
29370;SDS011;16357;52.188;7.838;2022-10-31T16:07:21;14.93;;;10.43;;
29370;SDS011;16357;52.188;7.838;2022-10-31T16:09:49;17.25;;;10.00;;
29370;SDS011;16357;52.188;7.838;2022-10-31T16:12:18;12.80;;;8.27;;
29370;SDS011;16357;52.188;7.838;2022-10-31T16:14:48;14.63;;;9.90;;
29370;SDS011;16357;52.188;7.838;2022-10-31T16:17:16;17.00;;;9.30;;
29370;SDS011;16357;52.188;7.838;2022-10-31T16:22:26;16.45;;;10.15;;
29370;SDS011;16357;52.188;7.838;2022-10-31T16:25:04;19.10;;;9.85;;
29370;SDS011;16357;52.188;7.838;2022-10-31T16:27:38;14.77;;;9.77;;
29370;SDS011;16357;52.188;7.838;2022-10-31T16:32:55;16.90;;;9.37;;
29370;SDS011;16357;52.188;7.838;2022-10-31T16:37:53;18.20;;;11.93;;
29370;SDS011;16357;52.188;7.838;2022-10-31T16:40:20;21.42;;;10.95;;
29370;SDS011;16357;52.188;7.838;2022-10-31T16:42:46;22.95;;;10.82;;
29370;SDS011;16357;52.188;7.838;2022-10-31T16:45:17;14.63;;;9.18;;
29370;SDS011;16357;52.188;7.838;2022-10-31T16:47:45;12.98;;;9.30;;
29370;SDS011;16357;52.188;7.838;2022-10-31T16:50:13;14.85;;;8.77;;
29370;SDS011;16357;52.188;7.838;2022-10-31T16:52:45;20.73;;;8.98;;
29370;SDS011;16357;52.188;7.838;2022-10-31T16:55:33;14.43;;;8.90;;
29370;SDS011;16357;52.188;7.838;2022-10-31T16:58:02;14.38;;;8.93;;
29370;SDS011;16357;52.188;7.838;2022-10-31T17:00:29;20.58;;;9.38;;
29370;SDS011;16357;52.188;7.838;2022-10-31T17:02:56;17.60;;;8.27;;
29370;SDS011;16357;52.188;7.838;2022-10-31T17:05:23;24.50;;;9.05;;
29370;SDS011;16357;52.188;7.838;2022-10-31T17:07:58;14.32;;;8.40;;
29370;SDS011;16357;52.188;7.838;2022-10-31T17:10:26;18.27;;;9.68;;
29370;SDS011;16357;52.188;7.838;2022-10-31T17:12:53;15.02;;;8.30;;
29370;SDS011;16357;52.188;7.838;2022-10-31T17:15:21;14.13;;;8.55;;
29370;SDS011;16357;52.188;7.838;2022-10-31T17:17:53;14.73;;;8.18;;
29370;SDS011;16357;52.188;7.838;2022-10-31T17:22:51;15.13;;;8.52;;
29370;SDS011;16357;52.188;7.838;2022-10-31T17:25:19;13.43;;;8.20;;
29370;SDS011;16357;52.188;7.838;2022-10-31T17:27:50;15.88;;;9.20;;
29370;SDS011;16357;52.188;7.838;2022-10-31T17:30:17;17.02;;;9.02;;